sensor_id;sensor_type;location;lat;lon;timestamp;temperature;humidity
54824;DHT22;40724;53.196;5.980;2023-05-10T00:05:33;18.90;99.90
54824;DHT22;40724;53.196;5.980;2023-05-10T00:07:58;13.00;99.90
54824;DHT22;40724;53.196;5.980;2023-05-10T00:10:24;12.80;99.90
54824;DHT22;40724;53.196;5.980;2023-05-10T00:12:50;12.90;99.90
54824;DHT22;40724;53.196;5.980;2023-05-10T00:15:16;12.80;99.90
54824;DHT22;40724;53.196;5.980;2023-05-10T00:17:42;12.80;99.90
54824;DHT22;40724;53.196;5.980;2023-05-10T00:20:08;12.80;99.90
54824;DHT22;40724;53.196;5.980;2023-05-10T00:22:34;12.80;99.90
54824;DHT22;40724;53.196;5.980;2023-05-10T00:24:59;12.80;99.90
54824;DHT22;40724;53.196;5.980;2023-05-10T18:18:41;12.80;99.90
54824;DHT22;40724;53.196;5.980;2023-05-10T20:57:30;13.80;99.90
54824;DHT22;40724;53.196;5.980;2023-05-10T20:59:55;12.10;99.90
54824;DHT22;40724;53.196;5.980;2023-05-10T21:02:22;12.10;99.90
54824;DHT22;40724;53.196;5.980;2023-05-10T21:04:47;12.00;99.90
54824;DHT22;40724;53.196;5.980;2023-05-10T21:07:13;12.00;99.90
54824;DHT22;40724;53.196;5.980;2023-05-10T21:09:39;12.00;99.90
54824;DHT22;40724;53.196;5.980;2023-05-10T21:12:05;12.00;99.90
54824;DHT22;40724;53.196;5.980;2023-05-10T21:14:31;12.00;99.90
54824;DHT22;40724;53.196;5.980;2023-05-10T21:16:57;12.00;99.90
54824;DHT22;40724;53.196;5.980;2023-05-10T21:19:22;12.00;99.90
54824;DHT22;40724;53.196;5.980;2023-05-10T21:21:48;12.00;99.90
54824;DHT22;40724;53.196;5.980;2023-05-10T21:24:14;12.00;99.90
54824;DHT22;40724;53.196;5.980;2023-05-10T21:26:40;12.00;99.90
54824;DHT22;40724;53.196;5.980;2023-05-10T21:29:06;11.90;99.90
54824;DHT22;40724;53.196;5.980;2023-05-10T21:31:32;11.90;99.90
54824;DHT22;40724;53.196;5.980;2023-05-10T21:33:58;11.90;99.90
54824;DHT22;40724;53.196;5.980;2023-05-10T21:36:24;11.80;99.90
54824;DHT22;40724;53.196;5.980;2023-05-10T21:38:50;11.90;99.90
54824;DHT22;40724;53.196;5.980;2023-05-10T21:41:16;11.80;99.90
54824;DHT22;40724;53.196;5.980;2023-05-10T21:43:42;11.80;99.90
54824;DHT22;40724;53.196;5.980;2023-05-10T21:46:08;11.80;99.90
54824;DHT22;40724;53.196;5.980;2023-05-10T21:48:35;11.80;99.90
54824;DHT22;40724;53.196;5.980;2023-05-10T21:51:00;11.80;99.90
54824;DHT22;40724;53.196;5.980;2023-05-10T21:53:27;11.70;99.90
54824;DHT22;40724;53.196;5.980;2023-05-10T21:55:53;11.70;99.90
54824;DHT22;40724;53.196;5.980;2023-05-10T21:58:22;11.70;99.90
54824;DHT22;40724;53.196;5.980;2023-05-10T22:00:48;11.70;99.90
54824;DHT22;40724;53.196;5.980;2023-05-10T22:03:14;11.70;99.90
54824;DHT22;40724;53.196;5.980;2023-05-10T22:05:43;11.70;99.90
54824;DHT22;40724;53.196;5.980;2023-05-10T22:08:09;11.70;99.90
54824;DHT22;40724;53.196;5.980;2023-05-10T22:10:35;11.60;99.90
54824;DHT22;40724;53.196;5.980;2023-05-10T22:13:00;11.60;99.90
54824;DHT22;40724;53.196;5.980;2023-05-10T22:15:26;11.60;99.90
54824;DHT22;40724;53.196;5.980;2023-05-10T22:17:52;11.60;99.90
54824;DHT22;40724;53.196;5.980;2023-05-10T22:20:18;11.60;99.90
54824;DHT22;40724;53.196;5.980;2023-05-10T22:22:45;11.60;99.90
54824;DHT22;40724;53.196;5.980;2023-05-10T22:25:11;11.60;99.90
54824;DHT22;40724;53.196;5.980;2023-05-10T22:27:36;11.60;99.90
54824;DHT22;40724;53.196;5.980;2023-05-10T22:30:03;11.60;99.90
54824;DHT22;40724;53.196;5.980;2023-05-10T22:32:30;11.50;99.90
54824;DHT22;40724;53.196;5.980;2023-05-10T22:34:56;11.50;99.90
54824;DHT22;40724;53.196;5.980;2023-05-10T22:37:21;11.60;99.90
54824;DHT22;40724;53.196;5.980;2023-05-10T22:39:48;11.60;99.90
54824;DHT22;40724;53.196;5.980;2023-05-10T22:42:14;11.60;99.90
54824;DHT22;40724;53.196;5.980;2023-05-10T22:44:41;11.50;99.90
54824;DHT22;40724;53.196;5.980;2023-05-10T22:47:07;11.50;99.90
54824;DHT22;40724;53.196;5.980;2023-05-10T22:49:33;11.50;99.90
54824;DHT22;40724;53.196;5.980;2023-05-10T22:52:00;11.60;99.90
54824;DHT22;40724;53.196;5.980;2023-05-10T22:54:26;11.50;99.90
